sensor_id;sensor_type;location;lat;lon;timestamp;P1;durP1;ratioP1;P2;durP2;ratioP2
3755;SDS011;1893;52.526;13.360;2023-02-22T00:01:09;21.47;;;4.77;;
3755;SDS011;1893;52.526;13.360;2023-02-22T00:03:57;21.07;;;4.10;;
3755;SDS011;1893;52.526;13.360;2023-02-22T00:06:23;22.57;;;3.87;;
3755;SDS011;1893;52.526;13.360;2023-02-22T00:08:50;18.37;;;3.57;;
3755;SDS011;1893;52.526;13.360;2023-02-22T00:11:16;18.90;;;4.90;;
3755;SDS011;1893;52.526;13.360;2023-02-22T00:13:42;9.97;;;3.57;;
3755;SDS011;1893;52.526;13.360;2023-02-22T00:16:12;12.60;;;3.50;;
3755;SDS011;1893;52.526;13.360;2023-02-22T00:18:42;21.43;;;4.17;;
3755;SDS011;1893;52.526;13.360;2023-02-22T00:21:08;25.00;;;3.60;;
3755;SDS011;1893;52.526;13.360;2023-02-22T00:23:35;20.23;;;3.87;;
3755;SDS011;1893;52.526;13.360;2023-02-22T00:26:03;15.43;;;3.60;;
3755;SDS011;1893;52.526;13.360;2023-02-22T00:28:30;27.17;;;4.70;;
3755;SDS011;1893;52.526;13.360;2023-02-22T00:30:56;13.57;;;4.27;;
3755;SDS011;1893;52.526;13.360;2023-02-22T00:33:23;17.50;;;3.60;;
3755;SDS011;1893;52.526;13.360;2023-02-22T00:35:49;15.07;;;3.70;;
3755;SDS011;1893;52.526;13.360;2023-02-22T00:38:15;25.07;;;3.87;;
3755;SDS011;1893;52.526;13.360;2023-02-22T00:40:42;14.40;;;5.07;;
3755;SDS011;1893;52.526;13.360;2023-02-22T00:43:09;15.10;;;3.37;;
3755;SDS011;1893;52.526;13.360;2023-02-22T00:45:35;22.37;;;3.80;;
3755;SDS011;1893;52.526;13.360;2023-02-22T00:48:02;24.20;;;4.30;;
3755;SDS011;1893;52.526;13.360;2023-02-22T00:50:29;20.43;;;4.47;;
3755;SDS011;1893;52.526;13.360;2023-02-22T00:52:56;12.33;;;3.77;;
3755;SDS011;1893;52.526;13.360;2023-02-22T00:55:25;18.07;;;4.57;;
3755;SDS011;1893;52.526;13.360;2023-02-22T00:57:52;15.87;;;2.87;;
3755;SDS011;1893;52.526;13.360;2023-02-22T01:00:21;17.47;;;3.03;;
3755;SDS011;1893;52.526;13.360;2023-02-22T01:02:49;25.80;;;2.70;;
3755;SDS011;1893;52.526;13.360;2023-02-22T01:05:16;20.43;;;3.37;;
3755;SDS011;1893;52.526;13.360;2023-02-22T01:07:43;17.53;;;3.87;;
3755;SDS011;1893;52.526;13.360;2023-02-22T01:10:10;21.23;;;3.47;;
3755;SDS011;1893;52.526;13.360;2023-02-22T01:12:36;15.80;;;2.87;;
3755;SDS011;1893;52.526;13.360;2023-02-22T01:15:05;21.20;;;4.10;;
3755;SDS011;1893;52.526;13.360;2023-02-22T01:17:34;16.53;;;3.80;;
3755;SDS011;1893;52.526;13.360;2023-02-22T01:20:01;14.80;;;3.93;;
3755;SDS011;1893;52.526;13.360;2023-02-22T01:22:34;14.97;;;3.30;;
3755;SDS011;1893;52.526;13.360;2023-02-22T01:25:01;18.23;;;3.43;;
3755;SDS011;1893;52.526;13.360;2023-02-22T01:27:27;13.67;;;3.70;;
3755;SDS011;1893;52.526;13.360;2023-02-22T01:29:53;21.87;;;4.67;;
3755;SDS011;1893;52.526;13.360;2023-02-22T01:32:18;16.00;;;4.70;;
3755;SDS011;1893;52.526;13.360;2023-02-22T01:34:44;25.30;;;3.87;;
3755;SDS011;1893;52.526;13.360;2023-02-22T01:37:10;19.07;;;4.57;;
3755;SDS011;1893;52.526;13.360;2023-02-22T01:39:35;24.13;;;4.27;;
3755;SDS011;1893;52.526;13.360;2023-02-22T01:42:01;20.37;;;3.53;;
3755;SDS011;1893;52.526;13.360;2023-02-22T01:46:59;22.83;;;3.53;;
3755;SDS011;1893;52.526;13.360;2023-02-22T01:49:41;21.63;;;4.10;;
3755;SDS011;1893;52.526;13.360;2023-02-22T01:52:11;23.57;;;5.30;;
3755;SDS011;1893;52.526;13.360;2023-02-22T01:54:42;19.60;;;3.70;;
3755;SDS011;1893;52.526;13.360;2023-02-22T01:57:17;18.67;;;5.53;;
3755;SDS011;1893;52.526;13.360;2023-02-22T01:59:57;20.57;;;3.93;;
3755;SDS011;1893;52.526;13.360;2023-02-22T02:02:33;23.10;;;3.70;;
3755;SDS011;1893;52.526;13.360;2023-02-22T02:05:00;22.40;;;4.30;;
3755;SDS011;1893;52.526;13.360;2023-02-22T02:07:26;13.90;;;3.47;;
3755;SDS011;1893;52.526;13.360;2023-02-22T02:09:58;22.60;;;4.60;;
3755;SDS011;1893;52.526;13.360;2023-02-22T02:12:26;27.00;;;4.20;;
3755;SDS011;1893;52.526;13.360;2023-02-22T02:17:45;15.20;;;4.33;;
3755;SDS011;1893;52.526;13.360;2023-02-22T02:20:14;26.27;;;4.83;;
3755;SDS011;1893;52.526;13.360;2023-02-22T02:34:29;16.83;;;3.73;;
3755;SDS011;1893;52.526;13.360;2023-02-22T02:37:15;23.50;;;4.80;;
3755;SDS011;1893;52.526;13.360;2023-02-22T02:42:49;20.50;;;4.37;;
3755;SDS011;1893;52.526;13.360;2023-02-22T02:45:35;21.17;;;4.20;;
3755;SDS011;1893;52.526;13.360;2023-02-22T02:48:07;12.90;;;3.50;;
3755;SDS011;1893;52.526;13.360;2023-02-22T02:50:37;19.90;;;3.50;;
3755;SDS011;1893;52.526;13.360;2023-02-22T02:53:08;20.13;;;4.37;;
3755;SDS011;1893;52.526;13.360;2023-02-22T02:55:35;22.60;;;4.53;;
3755;SDS011;1893;52.526;13.360;2023-02-22T02:58:05;22.53;;;3.83;;
3755;SDS011;1893;52.526;13.360;2023-02-22T03:00:38;25.13;;;4.63;;
3755;SDS011;1893;52.526;13.360;2023-02-22T03:09:09;13.17;;;4.13;;
3755;SDS011;1893;52.526;13.360;2023-02-22T03:25:45;18.10;;;3.33;;
3755;SDS011;1893;52.526;13.360;2023-02-22T03:28:16;19.80;;;4.13;;
3755;SDS011;1893;52.526;13.360;2023-02-22T03:30:47;17.33;;;3.50;;
3755;SDS011;1893;52.526;13.360;2023-02-22T03:33:44;20.10;;;3.90;;
3755;SDS011;1893;52.526;13.360;2023-02-22T03:36:21;13.47;;;3.13;;
3755;SDS011;1893;52.526;13.360;2023-02-22T03:38:54;10.93;;;3.80;;
3755;SDS011;1893;52.526;13.360;2023-02-22T03:41:23;13.10;;;3.80;;
3755;SDS011;1893;52.526;13.360;2023-02-22T03:44:01;16.63;;;3.77;;
3755;SDS011;1893;52.526;13.360;2023-02-22T03:46:30;21.07;;;4.40;;
3755;SDS011;1893;52.526;13.360;2023-02-22T03:49:08;19.77;;;3.80;;
3755;SDS011;1893;52.526;13.360;2023-02-22T03:51:38;14.43;;;4.73;;
3755;SDS011;1893;52.526;13.360;2023-02-22T03:54:04;15.90;;;4.30;;
3755;SDS011;1893;52.526;13.360;2023-02-22T03:56:32;20.43;;;3.43;;
3755;SDS011;1893;52.526;13.360;2023-02-22T03:59:04;16.23;;;3.40;;
3755;SDS011;1893;52.526;13.360;2023-02-22T04:04:54;17.73;;;3.10;;
3755;SDS011;1893;52.526;13.360;2023-02-22T04:07:20;16.13;;;4.50;;
3755;SDS011;1893;52.526;13.360;2023-02-22T04:09:45;19.60;;;3.53;;
3755;SDS011;1893;52.526;13.360;2023-02-22T04:12:11;20.83;;;3.30;;
3755;SDS011;1893;52.526;13.360;2023-02-22T04:14:36;17.37;;;3.70;;
3755;SDS011;1893;52.526;13.360;2023-02-22T04:17:02;18.33;;;3.53;;
3755;SDS011;1893;52.526;13.360;2023-02-22T04:19:27;15.63;;;3.63;;
3755;SDS011;1893;52.526;13.360;2023-02-22T04:21:53;17.13;;;3.77;;
3755;SDS011;1893;52.526;13.360;2023-02-22T04:24:19;17.43;;;5.10;;
3755;SDS011;1893;52.526;13.360;2023-02-22T04:26:45;19.90;;;4.70;;
3755;SDS011;1893;52.526;13.360;2023-02-22T04:29:10;17.30;;;3.30;;
3755;SDS011;1893;52.526;13.360;2023-02-22T04:31:36;13.47;;;3.53;;
3755;SDS011;1893;52.526;13.360;2023-02-22T04:34:02;18.93;;;4.57;;
3755;SDS011;1893;52.526;13.360;2023-02-22T04:36:28;18.03;;;4.27;;
3755;SDS011;1893;52.526;13.360;2023-02-22T04:38:56;18.00;;;3.80;;
3755;SDS011;1893;52.526;13.360;2023-02-22T04:41:22;19.27;;;4.90;;
3755;SDS011;1893;52.526;13.360;2023-02-22T04:43:48;23.70;;;4.03;;
3755;SDS011;1893;52.526;13.360;2023-02-22T04:46:14;18.43;;;4.07;;
3755;SDS011;1893;52.526;13.360;2023-02-22T04:48:40;24.13;;;5.00;;
3755;SDS011;1893;52.526;13.360;2023-02-22T04:51:06;15.97;;;4.10;;
3755;SDS011;1893;52.526;13.360;2023-02-22T04:53:32;18.40;;;3.50;;
3755;SDS011;1893;52.526;13.360;2023-02-22T04:55:58;20.00;;;4.60;;
3755;SDS011;1893;52.526;13.360;2023-02-22T04:58:23;10.33;;;3.73;;
3755;SDS011;1893;52.526;13.360;2023-02-22T05:00:49;26.33;;;4.73;;
3755;SDS011;1893;52.526;13.360;2023-02-22T05:03:15;10.87;;;3.97;;
3755;SDS011;1893;52.526;13.360;2023-02-22T05:05:41;17.63;;;4.40;;
3755;SDS011;1893;52.526;13.360;2023-02-22T05:08:06;18.77;;;4.47;;
3755;SDS011;1893;52.526;13.360;2023-02-22T05:10:32;18.27;;;4.30;;
3755;SDS011;1893;52.526;13.360;2023-02-22T05:12:57;20.57;;;4.40;;
3755;SDS011;1893;52.526;13.360;2023-02-22T05:15:23;14.20;;;4.00;;
3755;SDS011;1893;52.526;13.360;2023-02-22T05:17:49;20.00;;;5.90;;
3755;SDS011;1893;52.526;13.360;2023-02-22T05:20:23;19.50;;;4.50;;
3755;SDS011;1893;52.526;13.360;2023-02-22T05:22:54;20.40;;;5.50;;
3755;SDS011;1893;52.526;13.360;2023-02-22T05:25:21;13.33;;;5.57;;
3755;SDS011;1893;52.526;13.360;2023-02-22T05:27:53;15.40;;;4.47;;
3755;SDS011;1893;52.526;13.360;2023-02-22T05:30:22;19.10;;;4.93;;
3755;SDS011;1893;52.526;13.360;2023-02-22T05:32:51;19.80;;;4.23;;
3755;SDS011;1893;52.526;13.360;2023-02-22T05:35:17;20.80;;;4.90;;
3755;SDS011;1893;52.526;13.360;2023-02-22T05:37:44;19.60;;;5.10;;
3755;SDS011;1893;52.526;13.360;2023-02-22T05:40:10;21.33;;;4.67;;
3755;SDS011;1893;52.526;13.360;2023-02-22T05:42:38;17.47;;;5.77;;
3755;SDS011;1893;52.526;13.360;2023-02-22T05:45:04;21.83;;;5.33;;
3755;SDS011;1893;52.526;13.360;2023-02-22T05:47:30;21.03;;;4.73;;
3755;SDS011;1893;52.526;13.360;2023-02-22T05:49:56;18.77;;;4.40;;
3755;SDS011;1893;52.526;13.360;2023-02-22T05:52:22;20.10;;;5.50;;
3755;SDS011;1893;52.526;13.360;2023-02-22T05:54:47;19.50;;;4.80;;
3755;SDS011;1893;52.526;13.360;2023-02-22T05:57:13;22.73;;;5.80;;
3755;SDS011;1893;52.526;13.360;2023-02-22T05:59:38;21.50;;;5.30;;
3755;SDS011;1893;52.526;13.360;2023-02-22T06:02:04;28.30;;;5.80;;
3755;SDS011;1893;52.526;13.360;2023-02-22T06:04:30;25.17;;;5.77;;
3755;SDS011;1893;52.526;13.360;2023-02-22T06:06:55;22.47;;;5.57;;
3755;SDS011;1893;52.526;13.360;2023-02-22T06:09:21;31.57;;;11.73;;
3755;SDS011;1893;52.526;13.360;2023-02-22T06:11:47;23.90;;;7.53;;
3755;SDS011;1893;52.526;13.360;2023-02-22T06:14:12;16.13;;;4.70;;
3755;SDS011;1893;52.526;13.360;2023-02-22T06:16:38;22.53;;;5.30;;
3755;SDS011;1893;52.526;13.360;2023-02-22T06:19:03;31.97;;;5.80;;
3755;SDS011;1893;52.526;13.360;2023-02-22T06:21:29;20.40;;;4.50;;
3755;SDS011;1893;52.526;13.360;2023-02-22T06:23:55;27.17;;;4.90;;
3755;SDS011;1893;52.526;13.360;2023-02-22T06:26:20;25.57;;;4.33;;
3755;SDS011;1893;52.526;13.360;2023-02-22T06:28:47;20.57;;;4.60;;
3755;SDS011;1893;52.526;13.360;2023-02-22T06:31:13;20.23;;;4.80;;
3755;SDS011;1893;52.526;13.360;2023-02-22T06:33:38;19.60;;;4.90;;
3755;SDS011;1893;52.526;13.360;2023-02-22T06:36:04;13.20;;;4.00;;
3755;SDS011;1893;52.526;13.360;2023-02-22T06:38:30;43.60;;;17.93;;
3755;SDS011;1893;52.526;13.360;2023-02-22T06:40:56;19.83;;;5.20;;
3755;SDS011;1893;52.526;13.360;2023-02-22T06:43:22;25.70;;;4.93;;
3755;SDS011;1893;52.526;13.360;2023-02-22T06:45:51;22.13;;;4.47;;
3755;SDS011;1893;52.526;13.360;2023-02-22T06:48:17;15.80;;;4.70;;
3755;SDS011;1893;52.526;13.360;2023-02-22T06:50:43;17.13;;;5.37;;
3755;SDS011;1893;52.526;13.360;2023-02-22T06:53:08;20.90;;;4.93;;
3755;SDS011;1893;52.526;13.360;2023-02-22T06:55:34;29.13;;;5.00;;
3755;SDS011;1893;52.526;13.360;2023-02-22T06:58:00;23.67;;;6.23;;
3755;SDS011;1893;52.526;13.360;2023-02-22T07:00:29;30.07;;;6.97;;
3755;SDS011;1893;52.526;13.360;2023-02-22T07:02:56;37.13;;;6.83;;
3755;SDS011;1893;52.526;13.360;2023-02-22T07:05:23;24.13;;;5.30;;
3755;SDS011;1893;52.526;13.360;2023-02-22T07:07:49;25.53;;;6.07;;
3755;SDS011;1893;52.526;13.360;2023-02-22T07:10:22;17.37;;;5.63;;
3755;SDS011;1893;52.526;13.360;2023-02-22T07:12:49;32.13;;;6.60;;
3755;SDS011;1893;52.526;13.360;2023-02-22T07:15:19;24.43;;;6.63;;
3755;SDS011;1893;52.526;13.360;2023-02-22T07:17:46;18.10;;;5.60;;
3755;SDS011;1893;52.526;13.360;2023-02-22T07:20:12;21.80;;;5.53;;
3755;SDS011;1893;52.526;13.360;2023-02-22T07:22:38;20.97;;;6.20;;
3755;SDS011;1893;52.526;13.360;2023-02-22T07:25:04;21.73;;;6.37;;
3755;SDS011;1893;52.526;13.360;2023-02-22T07:27:31;16.53;;;6.10;;
3755;SDS011;1893;52.526;13.360;2023-02-22T07:29:57;18.87;;;6.30;;
3755;SDS011;1893;52.526;13.360;2023-02-22T07:32:22;21.67;;;5.93;;
3755;SDS011;1893;52.526;13.360;2023-02-22T07:34:48;21.40;;;5.57;;
3755;SDS011;1893;52.526;13.360;2023-02-22T07:37:13;21.53;;;5.60;;
3755;SDS011;1893;52.526;13.360;2023-02-22T07:39:39;27.63;;;6.60;;
3755;SDS011;1893;52.526;13.360;2023-02-22T07:42:07;20.30;;;7.30;;
3755;SDS011;1893;52.526;13.360;2023-02-22T07:44:33;21.40;;;7.03;;
3755;SDS011;1893;52.526;13.360;2023-02-22T07:46:58;20.43;;;7.43;;
3755;SDS011;1893;52.526;13.360;2023-02-22T07:49:26;22.20;;;7.97;;
3755;SDS011;1893;52.526;13.360;2023-02-22T07:51:52;25.30;;;8.83;;
3755;SDS011;1893;52.526;13.360;2023-02-22T07:54:17;23.83;;;9.53;;
3755;SDS011;1893;52.526;13.360;2023-02-22T07:56:44;29.30;;;10.30;;
3755;SDS011;1893;52.526;13.360;2023-02-22T07:59:13;25.20;;;10.30;;
3755;SDS011;1893;52.526;13.360;2023-02-22T08:01:39;25.20;;;10.77;;
3755;SDS011;1893;52.526;13.360;2023-02-22T08:04:05;22.23;;;9.20;;
3755;SDS011;1893;52.526;13.360;2023-02-22T08:06:31;20.80;;;9.37;;
3755;SDS011;1893;52.526;13.360;2023-02-22T08:08:56;26.50;;;9.80;;
3755;SDS011;1893;52.526;13.360;2023-02-22T08:11:23;26.87;;;9.80;;
3755;SDS011;1893;52.526;13.360;2023-02-22T08:13:49;33.87;;;10.30;;
3755;SDS011;1893;52.526;13.360;2023-02-22T08:16:15;26.40;;;10.93;;
3755;SDS011;1893;52.526;13.360;2023-02-22T08:18:40;30.60;;;10.80;;
3755;SDS011;1893;52.526;13.360;2023-02-22T08:21:06;33.57;;;12.10;;
3755;SDS011;1893;52.526;13.360;2023-02-22T08:23:32;34.57;;;12.60;;
3755;SDS011;1893;52.526;13.360;2023-02-22T08:26:04;21.47;;;11.00;;
3755;SDS011;1893;52.526;13.360;2023-02-22T08:28:31;27.97;;;10.40;;
3755;SDS011;1893;52.526;13.360;2023-02-22T08:30:56;28.53;;;10.10;;
3755;SDS011;1893;52.526;13.360;2023-02-22T08:33:22;22.67;;;10.30;;
3755;SDS011;1893;52.526;13.360;2023-02-22T08:35:48;28.53;;;10.30;;
3755;SDS011;1893;52.526;13.360;2023-02-22T08:38:16;21.40;;;9.90;;
3755;SDS011;1893;52.526;13.360;2023-02-22T08:40:50;26.33;;;9.87;;
3755;SDS011;1893;52.526;13.360;2023-02-22T08:43:17;23.47;;;9.30;;
3755;SDS011;1893;52.526;13.360;2023-02-22T08:45:43;18.90;;;7.27;;
3755;SDS011;1893;52.526;13.360;2023-02-22T08:48:09;37.17;;;7.70;;
3755;SDS011;1893;52.526;13.360;2023-02-22T08:50:35;26.13;;;8.60;;
3755;SDS011;1893;52.526;13.360;2023-02-22T08:53:03;28.47;;;7.73;;
3755;SDS011;1893;52.526;13.360;2023-02-22T08:55:30;28.03;;;6.70;;
3755;SDS011;1893;52.526;13.360;2023-02-22T08:57:58;25.60;;;5.43;;
3755;SDS011;1893;52.526;13.360;2023-02-22T09:00:27;18.13;;;5.93;;
3755;SDS011;1893;52.526;13.360;2023-02-22T09:02:56;16.57;;;5.53;;
3755;SDS011;1893;52.526;13.360;2023-02-22T09:05:23;17.60;;;5.93;;
3755;SDS011;1893;52.526;13.360;2023-02-22T09:07:48;21.50;;;5.03;;
3755;SDS011;1893;52.526;13.360;2023-02-22T09:10:17;23.00;;;5.33;;
3755;SDS011;1893;52.526;13.360;2023-02-22T09:12:48;21.43;;;5.03;;
3755;SDS011;1893;52.526;13.360;2023-02-22T09:15:19;22.40;;;6.10;;
3755;SDS011;1893;52.526;13.360;2023-02-22T09:17:45;20.80;;;4.90;;
3755;SDS011;1893;52.526;13.360;2023-02-22T09:20:11;21.20;;;4.90;;
3755;SDS011;1893;52.526;13.360;2023-02-22T09:22:37;23.20;;;6.43;;
3755;SDS011;1893;52.526;13.360;2023-02-22T09:25:04;21.43;;;5.33;;
3755;SDS011;1893;52.526;13.360;2023-02-22T09:27:30;22.47;;;5.47;;
3755;SDS011;1893;52.526;13.360;2023-02-22T09:29:56;16.73;;;6.17;;
3755;SDS011;1893;52.526;13.360;2023-02-22T09:32:22;21.90;;;4.40;;
3755;SDS011;1893;52.526;13.360;2023-02-22T09:34:51;15.73;;;5.37;;
3755;SDS011;1893;52.526;13.360;2023-02-22T09:37:17;19.53;;;6.23;;
3755;SDS011;1893;52.526;13.360;2023-02-22T09:39:43;25.30;;;4.77;;
3755;SDS011;1893;52.526;13.360;2023-02-22T09:42:16;17.90;;;4.50;;
3755;SDS011;1893;52.526;13.360;2023-02-22T09:45:01;19.30;;;4.50;;
3755;SDS011;1893;52.526;13.360;2023-02-22T09:47:47;14.73;;;4.03;;
3755;SDS011;1893;52.526;13.360;2023-02-22T09:50:19;15.17;;;3.80;;
3755;SDS011;1893;52.526;13.360;2023-02-22T09:57:58;19.73;;;4.97;;
3755;SDS011;1893;52.526;13.360;2023-02-22T10:00:32;21.53;;;6.37;;
3755;SDS011;1893;52.526;13.360;2023-02-22T10:05:53;15.70;;;3.70;;
3755;SDS011;1893;52.526;13.360;2023-02-22T10:08:33;14.43;;;4.23;;
3755;SDS011;1893;52.526;13.360;2023-02-22T10:11:09;24.83;;;5.40;;
3755;SDS011;1893;52.526;13.360;2023-02-22T10:19:44;8.73;;;3.70;;
3755;SDS011;1893;52.526;13.360;2023-02-22T10:27:38;16.17;;;3.50;;
3755;SDS011;1893;52.526;13.360;2023-02-22T10:32:41;18.93;;;4.00;;
3755;SDS011;1893;52.526;13.360;2023-02-22T10:37:51;15.10;;;4.20;;
3755;SDS011;1893;52.526;13.360;2023-02-22T10:40:20;15.40;;;3.40;;
3755;SDS011;1893;52.526;13.360;2023-02-22T10:42:56;14.10;;;4.07;;
3755;SDS011;1893;52.526;13.360;2023-02-22T10:45:30;15.40;;;3.40;;
3755;SDS011;1893;52.526;13.360;2023-02-22T10:48:02;24.83;;;4.90;;
3755;SDS011;1893;52.526;13.360;2023-02-22T10:50:35;16.33;;;4.67;;
3755;SDS011;1893;52.526;13.360;2023-02-22T10:53:04;21.20;;;3.80;;
3755;SDS011;1893;52.526;13.360;2023-02-22T10:55:34;18.07;;;3.90;;
3755;SDS011;1893;52.526;13.360;2023-02-22T10:58:04;17.77;;;4.07;;
3755;SDS011;1893;52.526;13.360;2023-02-22T11:00:37;13.07;;;4.40;;
3755;SDS011;1893;52.526;13.360;2023-02-22T11:03:20;17.30;;;4.13;;
3755;SDS011;1893;52.526;13.360;2023-02-22T11:05:47;13.20;;;4.20;;
3755;SDS011;1893;52.526;13.360;2023-02-22T11:10:46;11.53;;;4.60;;
3755;SDS011;1893;52.526;13.360;2023-02-22T11:16:00;16.33;;;4.17;;
3755;SDS011;1893;52.526;13.360;2023-02-22T11:18:45;16.50;;;3.87;;
3755;SDS011;1893;52.526;13.360;2023-02-22T11:21:12;22.80;;;5.53;;
3755;SDS011;1893;52.526;13.360;2023-02-22T11:23:44;25.07;;;4.30;;
3755;SDS011;1893;52.526;13.360;2023-02-22T11:26:11;12.70;;;3.57;;
3755;SDS011;1893;52.526;13.360;2023-02-22T11:28:43;14.80;;;4.53;;
3755;SDS011;1893;52.526;13.360;2023-02-22T11:31:16;26.23;;;4.60;;
3755;SDS011;1893;52.526;13.360;2023-02-22T11:33:45;16.50;;;4.47;;
3755;SDS011;1893;52.526;13.360;2023-02-22T11:36:30;14.07;;;4.43;;
3755;SDS011;1893;52.526;13.360;2023-02-22T11:39:09;10.33;;;3.77;;
3755;SDS011;1893;52.526;13.360;2023-02-22T11:41:52;11.30;;;3.80;;
3755;SDS011;1893;52.526;13.360;2023-02-22T11:44:24;19.17;;;5.47;;
3755;SDS011;1893;52.526;13.360;2023-02-22T11:46:55;25.63;;;5.70;;
3755;SDS011;1893;52.526;13.360;2023-02-22T11:49:31;12.23;;;3.40;;
3755;SDS011;1893;52.526;13.360;2023-02-22T11:52:04;25.77;;;3.97;;
3755;SDS011;1893;52.526;13.360;2023-02-22T12:02:32;20.93;;;4.00;;
3755;SDS011;1893;52.526;13.360;2023-02-22T12:13:55;19.50;;;3.83;;
3755;SDS011;1893;52.526;13.360;2023-02-22T12:16:57;10.33;;;3.13;;
3755;SDS011;1893;52.526;13.360;2023-02-22T12:22:03;16.13;;;3.20;;
3755;SDS011;1893;52.526;13.360;2023-02-22T12:25:05;23.07;;;4.67;;
3755;SDS011;1893;52.526;13.360;2023-02-22T12:27:51;17.53;;;4.17;;
3755;SDS011;1893;52.526;13.360;2023-02-22T12:30:23;25.20;;;4.20;;
3755;SDS011;1893;52.526;13.360;2023-02-22T12:33:00;20.20;;;4.47;;
3755;SDS011;1893;52.526;13.360;2023-02-22T12:35:30;10.83;;;4.00;;
3755;SDS011;1893;52.526;13.360;2023-02-22T12:38:08;20.37;;;3.50;;
3755;SDS011;1893;52.526;13.360;2023-02-22T12:40:38;15.60;;;3.40;;
3755;SDS011;1893;52.526;13.360;2023-02-22T12:43:13;19.67;;;4.20;;
3755;SDS011;1893;52.526;13.360;2023-02-22T12:45:51;14.13;;;4.03;;
3755;SDS011;1893;52.526;13.360;2023-02-22T12:48:47;12.23;;;3.73;;
3755;SDS011;1893;52.526;13.360;2023-02-22T12:56:55;18.63;;;3.97;;
3755;SDS011;1893;52.526;13.360;2023-02-22T12:59:38;11.77;;;3.73;;
3755;SDS011;1893;52.526;13.360;2023-02-22T13:05:18;12.00;;;2.93;;
3755;SDS011;1893;52.526;13.360;2023-02-22T13:20:41;13.80;;;2.37;;
3755;SDS011;1893;52.526;13.360;2023-02-22T13:23:15;21.43;;;3.27;;
3755;SDS011;1893;52.526;13.360;2023-02-22T13:26:05;20.23;;;3.73;;
3755;SDS011;1893;52.526;13.360;2023-02-22T13:28:43;13.47;;;2.97;;
3755;SDS011;1893;52.526;13.360;2023-02-22T13:37:04;10.13;;;3.20;;
3755;SDS011;1893;52.526;13.360;2023-02-22T13:42:58;13.43;;;3.63;;
3755;SDS011;1893;52.526;13.360;2023-02-22T13:54:15;10.47;;;2.60;;
3755;SDS011;1893;52.526;13.360;2023-02-22T13:56:42;8.17;;;2.60;;
3755;SDS011;1893;52.526;13.360;2023-02-22T13:59:20;6.10;;;1.70;;
3755;SDS011;1893;52.526;13.360;2023-02-22T14:01:49;8.97;;;2.40;;
3755;SDS011;1893;52.526;13.360;2023-02-22T14:04:18;6.83;;;2.80;;
3755;SDS011;1893;52.526;13.360;2023-02-22T14:06:44;17.33;;;2.87;;
3755;SDS011;1893;52.526;13.360;2023-02-22T14:12:09;18.03;;;4.43;;
3755;SDS011;1893;52.526;13.360;2023-02-22T14:17:34;7.27;;;2.60;;
3755;SDS011;1893;52.526;13.360;2023-02-22T14:20:03;10.50;;;2.87;;
3755;SDS011;1893;52.526;13.360;2023-02-22T14:22:55;13.77;;;3.93;;
3755;SDS011;1893;52.526;13.360;2023-02-22T14:25:29;22.43;;;4.00;;
3755;SDS011;1893;52.526;13.360;2023-02-22T14:27:57;14.27;;;2.80;;
3755;SDS011;1893;52.526;13.360;2023-02-22T14:30:25;15.77;;;3.37;;
3755;SDS011;1893;52.526;13.360;2023-02-22T14:32:54;12.63;;;3.83;;
3755;SDS011;1893;52.526;13.360;2023-02-22T14:35:20;14.87;;;3.83;;
3755;SDS011;1893;52.526;13.360;2023-02-22T14:37:51;20.30;;;3.00;;
3755;SDS011;1893;52.526;13.360;2023-02-22T14:42:47;13.33;;;2.70;;
3755;SDS011;1893;52.526;13.360;2023-02-22T14:55:47;14.60;;;2.47;;
3755;SDS011;1893;52.526;13.360;2023-02-22T14:58:22;10.97;;;2.87;;
3755;SDS011;1893;52.526;13.360;2023-02-22T15:00:53;10.43;;;2.60;;
3755;SDS011;1893;52.526;13.360;2023-02-22T15:05:46;14.23;;;2.30;;
3755;SDS011;1893;52.526;13.360;2023-02-22T15:08:14;19.70;;;3.53;;
3755;SDS011;1893;52.526;13.360;2023-02-22T15:10:45;14.97;;;3.00;;
3755;SDS011;1893;52.526;13.360;2023-02-22T15:15:48;15.00;;;2.57;;
3755;SDS011;1893;52.526;13.360;2023-02-22T15:20:57;20.97;;;3.70;;
3755;SDS011;1893;52.526;13.360;2023-02-22T15:23:44;14.20;;;3.10;;
3755;SDS011;1893;52.526;13.360;2023-02-22T15:26:16;17.27;;;3.67;;
3755;SDS011;1893;52.526;13.360;2023-02-22T15:28:44;9.33;;;2.90;;
3755;SDS011;1893;52.526;13.360;2023-02-22T15:31:21;12.90;;;5.00;;
3755;SDS011;1893;52.526;13.360;2023-02-22T15:36:39;63.80;;;23.57;;
3755;SDS011;1893;52.526;13.360;2023-02-22T15:39:15;27.27;;;11.37;;
3755;SDS011;1893;52.526;13.360;2023-02-22T15:44:38;13.80;;;3.50;;
3755;SDS011;1893;52.526;13.360;2023-02-22T15:47:08;21.23;;;3.83;;
3755;SDS011;1893;52.526;13.360;2023-02-22T15:49:41;20.10;;;3.33;;
3755;SDS011;1893;52.526;13.360;2023-02-22T15:52:08;12.13;;;3.03;;
3755;SDS011;1893;52.526;13.360;2023-02-22T15:54:40;14.57;;;2.80;;
3755;SDS011;1893;52.526;13.360;2023-02-22T15:57:08;13.13;;;3.00;;
3755;SDS011;1893;52.526;13.360;2023-02-22T15:59:39;13.60;;;3.73;;
3755;SDS011;1893;52.526;13.360;2023-02-22T16:02:17;19.40;;;3.10;;
3755;SDS011;1893;52.526;13.360;2023-02-22T16:07:41;11.20;;;3.10;;
3755;SDS011;1893;52.526;13.360;2023-02-22T16:13:04;23.93;;;4.53;;
3755;SDS011;1893;52.526;13.360;2023-02-22T16:15:31;22.30;;;3.80;;
3755;SDS011;1893;52.526;13.360;2023-02-22T16:18:14;10.23;;;3.03;;
3755;SDS011;1893;52.526;13.360;2023-02-22T16:20:41;18.37;;;3.70;;
3755;SDS011;1893;52.526;13.360;2023-02-22T16:23:23;16.30;;;4.30;;
3755;SDS011;1893;52.526;13.360;2023-02-22T16:26:00;12.83;;;4.13;;
3755;SDS011;1893;52.526;13.360;2023-02-22T16:28:29;16.90;;;3.07;;
3755;SDS011;1893;52.526;13.360;2023-02-22T16:30:58;15.80;;;3.63;;
3755;SDS011;1893;52.526;13.360;2023-02-22T16:33:24;12.90;;;2.77;;
3755;SDS011;1893;52.526;13.360;2023-02-22T16:35:53;12.10;;;2.77;;
3755;SDS011;1893;52.526;13.360;2023-02-22T16:38:21;22.73;;;3.93;;
3755;SDS011;1893;52.526;13.360;2023-02-22T16:40:51;11.50;;;2.90;;
3755;SDS011;1893;52.526;13.360;2023-02-22T16:43:20;18.50;;;4.70;;
3755;SDS011;1893;52.526;13.360;2023-02-22T16:45:48;18.83;;;3.63;;
3755;SDS011;1893;52.526;13.360;2023-02-22T16:50:47;13.90;;;3.40;;
3755;SDS011;1893;52.526;13.360;2023-02-22T16:53:14;11.70;;;3.10;;
3755;SDS011;1893;52.526;13.360;2023-02-22T16:55:43;16.90;;;3.23;;
3755;SDS011;1893;52.526;13.360;2023-02-22T16:58:10;16.60;;;4.43;;
3755;SDS011;1893;52.526;13.360;2023-02-22T17:00:37;15.37;;;2.97;;
3755;SDS011;1893;52.526;13.360;2023-02-22T17:03:06;9.83;;;3.70;;
3755;SDS011;1893;52.526;13.360;2023-02-22T17:05:38;12.70;;;2.73;;
3755;SDS011;1893;52.526;13.360;2023-02-22T17:08:04;17.83;;;3.10;;
3755;SDS011;1893;52.526;13.360;2023-02-22T17:10:30;16.67;;;3.90;;
3755;SDS011;1893;52.526;13.360;2023-02-22T17:12:56;14.63;;;4.03;;
3755;SDS011;1893;52.526;13.360;2023-02-22T17:15:24;15.80;;;4.37;;
3755;SDS011;1893;52.526;13.360;2023-02-22T17:17:52;18.07;;;3.80;;
3755;SDS011;1893;52.526;13.360;2023-02-22T17:20:19;23.53;;;4.10;;
3755;SDS011;1893;52.526;13.360;2023-02-22T17:22:57;18.13;;;2.90;;
3755;SDS011;1893;52.526;13.360;2023-02-22T17:25:32;15.33;;;3.20;;
3755;SDS011;1893;52.526;13.360;2023-02-22T17:28:01;19.30;;;3.70;;
3755;SDS011;1893;52.526;13.360;2023-02-22T17:30:27;14.03;;;3.40;;
3755;SDS011;1893;52.526;13.360;2023-02-22T17:32:55;13.13;;;3.60;;
3755;SDS011;1893;52.526;13.360;2023-02-22T17:35:27;19.70;;;4.70;;
3755;SDS011;1893;52.526;13.360;2023-02-22T17:37:54;15.47;;;5.60;;
3755;SDS011;1893;52.526;13.360;2023-02-22T17:40:21;20.00;;;6.70;;
3755;SDS011;1893;52.526;13.360;2023-02-22T17:42:47;19.93;;;7.27;;
3755;SDS011;1893;52.526;13.360;2023-02-22T17:45:18;14.60;;;4.90;;
3755;SDS011;1893;52.526;13.360;2023-02-22T17:47:48;14.30;;;3.17;;
3755;SDS011;1893;52.526;13.360;2023-02-22T17:50:15;10.40;;;4.27;;
3755;SDS011;1893;52.526;13.360;2023-02-22T17:52:41;9.50;;;3.40;;
3755;SDS011;1893;52.526;13.360;2023-02-22T17:55:08;7.27;;;3.20;;